Time;durP1;ratioP1;P1;durP2;ratioP2;P2;SDS_P1;SDS_P2;PMS_P1;PMS_P2;Temp;Humidity;BMP_temperature;BMP_pressure;BME280_temperature;BME280_humidity;BME280_pressure;Samples;Min_cycle;Max_cycle;Signal;HPM_P1;HPM_P2
2023/12/02 00:01:48;;;;;;;37.95;17.92;;;;;;;-2.13;100.00;100263.09;4973345;28;20398;-90
2023/12/02 00:04:13;;;;;;;31.85;16.80;;;;;;;-2.09;100.00;100262.22;4971810;28;20504;-90
2023/12/02 00:06:39;;;;;;;26.48;15.88;;;;;;;-2.05;100.00;100258.78;4972489;28;20022;-90
2023/12/02 00:09:04;;;;;;;33.22;16.83;;;;;;;-2.08;100.00;100257.13;4972898;28;20034;-90
2023/12/02 00:11:29;;;;;;;27.92;14.85;;;;;;;-2.08;100.00;100259.66;4973045;28;20027;-90
2023/12/02 00:13:55;;;;;;;29.65;15.43;;;;;;;-1.98;100.00;100260.41;4973083;28;20481;-90
2023/12/02 00:16:20;;;;;;;28.98;15.18;;;;;;;-1.94;100.00;100251.97;4972261;28;20114;-90
2023/12/02 00:18:45;;;;;;;23.98;13.50;;;;;;;-1.97;100.00;100246.94;4973232;28;20485;-89
2023/12/02 00:21:11;;;;;;;21.95;13.32;;;;;;;-1.97;100.00;100246.94;4973030;28;20478;-89
2023/12/02 00:23:36;;;;;;;23.63;14.20;;;;;;;-1.96;100.00;100258.72;4972781;28;20485;-89
2023/12/02 00:26:02;;;;;;;27.75;14.80;;;;;;;-1.92;100.00;100255.31;4973054;28;20093;-89
2023/12/02 00:28:27;;;;;;;30.45;15.07;;;;;;;-1.89;100.00;100250.22;4971673;28;20553;-89
2023/12/02 00:30:52;;;;;;;27.10;14.10;;;;;;;-1.97;100.00;100252.00;4973011;28;20062;-90
2023/12/02 00:33:18;;;;;;;30.58;15.70;;;;;;;-1.97;100.00;100262.94;4972825;28;20512;-89
2023/12/02 00:35:43;;;;;;;25.20;14.85;;;;;;;-1.99;100.00;100259.59;4973051;28;20466;-89
2023/12/02 00:38:08;;;;;;;21.95;12.57;;;;;;;-1.97;100.00;100252.81;4970347;28;20026;-89
2023/12/02 00:40:34;;;;;;;28.00;14.65;;;;;;;-1.95;100.00;100256.19;4973000;28;20058;-89
2023/12/02 00:42:59;;;;;;;27.15;14.68;;;;;;;-2.01;100.00;100248.63;4969617;28;20060;-89
2023/12/02 00:45:24;;;;;;;23.88;15.07;;;;;;;-1.88;100.00;100251.06;4971590;28;20019;-89
2023/12/02 00:47:50;;;;;;;21.48;12.65;;;;;;;-1.86;100.00;100252.72;4971175;28;20102;-89
2023/12/02 00:50:16;;;;;;;21.90;13.70;;;;;;;-1.83;100.00;100256.91;4971600;28;20030;-89
2023/12/02 00:52:41;;;;;;;23.77;14.05;;;;;;;-1.85;100.00;100251.03;4970695;28;20027;-89
2023/12/02 00:55:07;;;;;;;24.15;13.95;;;;;;;-1.85;100.00;100251.88;4974608;28;20433;-90
2023/12/02 00:57:33;;;;;;;62.05;13.32;;;;;;;-1.95;100.00;100247.78;4975170;28;20031;-90
2023/12/02 00:59:58;;;;;;;29.45;13.27;;;;;;;-1.98;100.00;100255.38;4976299;28;20035;-89
2023/12/02 01:02:23;;;;;;;28.92;13.77;;;;;;;-1.96;100.00;100251.13;4975239;28;20262;-89
2023/12/02 01:04:49;;;;;;;26.73;12.98;;;;;;;-2.02;100.00;100259.63;4974804;28;20031;-89
2023/12/02 01:07:14;;;;;;;23.85;13.00;;;;;;;-2.11;100.00;100248.75;4975861;28;20035;-89
2023/12/02 01:09:39;;;;;;;64.45;14.07;;;;;;;-2.17;100.00;100250.47;4976149;28;20122;-89
2023/12/02 01:12:05;;;;;;;37.35;13.73;;;;;;;-2.19;100.00;100249.66;4975325;28;20019;-89
2023/12/02 01:14:30;;;;;;;24.83;13.63;;;;;;;-2.15;100.00;100250.44;4976113;28;20027;-89
2023/12/02 01:16:56;;;;;;;25.10;14.38;;;;;;;-2.09;100.00;100257.16;4976201;28;20034;-89
2023/12/02 01:19:21;;;;;;;21.83;13.90;;;;;;;-2.06;100.00;100249.53;4976046;28;20042;-89
2023/12/02 01:21:47;;;;;;;26.55;12.50;;;;;;;-2.10;100.00;100245.34;4974789;28;20501;-89
2023/12/02 01:24:14;;;;;;;45.60;14.68;;;;;;;-2.14;100.00;100253.84;4974727;28;20037;-89
2023/12/02 01:26:39;;;;;;;30.95;14.13;;;;;;;-2.20;100.00;100250.47;4975929;28;20071;-89
2023/12/02 01:29:04;;;;;;;30.35;14.73;;;;;;;-2.09;100.00;100247.88;4975964;28;20077;-89
2023/12/02 01:31:29;;;;;;;22.83;14.20;;;;;;;-2.20;100.00;100250.47;4975864;28;20097;-89
2023/12/02 01:33:55;;;;;;;45.65;14.52;;;;;;;-2.08;100.00;100249.53;4974020;28;20134;-89
2023/12/02 01:36:20;;;;;;;44.72;15.07;;;;;;;-2.23;100.00;100245.47;4975526;28;20030;-89
2023/12/02 01:38:45;;;;;;;63.05;16.70;;;;;;;-2.39;100.00;100259.06;4975746;28;20034;-90
2023/12/02 01:41:11;;;;;;;96.03;15.48;;;;;;;-2.35;100.00;100243.03;4975617;28;20027;-89
2023/12/02 01:43:37;;;;;;;27.48;14.50;;;;;;;-2.37;100.00;100247.25;4974838;28;20030;-89
2023/12/02 01:46:03;;;;;;;51.95;13.75;;;;;;;-2.33;100.00;100251.44;4975622;28;20031;-89
2023/12/02 01:48:32;;;;;;;28.60;13.63;;;;;;;-2.16;100.00;100257.19;4975848;28;20031;-89
2023/12/02 01:50:57;;;;;;;27.45;14.68;;;;;;;-2.12;100.00;100257.16;4974509;28;20109;-89
2023/12/02 01:53:23;;;;;;;29.42;13.90;;;;;;;-2.00;100.00;100262.13;4974449;28;20106;-89
2023/12/02 01:55:48;;;;;;;22.73;12.73;;;;;;;-2.08;100.00;100266.41;4975128;28;20023;-89
2023/12/02 01:58:14;;;;;;;27.02;13.77;;;;;;;-2.06;100.00;100273.13;4974343;28;20117;-89
2023/12/02 02:00:39;;;;;;;20.15;13.35;;;;;;;-2.01;100.00;100271.41;4975518;28;20026;-89
2023/12/02 02:03:04;;;;;;;22.13;12.82;;;;;;;-2.02;100.00;100271.44;4975132;28;20371;-89
2023/12/02 02:05:30;;;;;;;21.38;12.85;;;;;;;-1.97;100.00;100272.22;4974946;28;20022;-89
2023/12/02 02:07:55;;;;;;;20.60;12.30;;;;;;;-1.95;100.00;100283.19;4973364;28;20038;-89
2023/12/02 02:10:21;;;;;;;22.38;12.95;;;;;;;-1.91;100.00;100281.44;4975383;28;20070;-90
2023/12/02 02:12:47;;;;;;;29.52;13.02;;;;;;;-1.99;100.00;100284.03;4974421;28;20034;-89
2023/12/02 02:15:12;;;;;;;27.85;13.73;;;;;;;-2.06;100.00;100284.94;4973549;28;20552;-89
2023/12/02 02:17:38;;;;;;;28.85;13.60;;;;;;;-2.13;100.00;100288.38;4975182;28;20441;-89
2023/12/02 02:20:04;;;;;;;25.42;12.73;;;;;;;-1.99;100.00;100296.69;4973808;28;20393;-90
2023/12/02 02:22:29;;;;;;;26.90;12.40;;;;;;;-1.94;100.00;100297.50;4972785;28;20022;-90
2023/12/02 02:24:54;;;;;;;22.85;12.50;;;;;;;-2.05;100.00;100299.25;4973496;28;20022;-89
2023/12/02 02:27:20;;;;;;;42.88;12.00;;;;;;;-1.98;100.00;100300.88;4973671;28;20421;-90
2023/12/02 02:29:45;;;;;;;23.58;11.90;;;;;;;-2.16;100.00;100302.72;4974656;28;20093;-89
2023/12/02 02:32:10;;;;;;;39.90;12.82;;;;;;;-2.21;100.00;100316.25;4973496;28;20015;-89
2023/12/02 02:34:39;;;;;;;22.85;12.90;;;;;;;-2.17;100.00;100323.81;4974259;28;20039;-90
2023/12/02 02:37:05;;;;;;;32.97;12.98;;;;;;;-2.14;100.00;100329.69;4973252;28;20110;-89
2023/12/02 02:39:30;;;;;;;28.73;12.40;;;;;;;-1.98;100.00;100321.94;4974578;28;20462;-89
2023/12/02 02:41:55;;;;;;;32.50;12.82;;;;;;;-2.17;100.00;100323.81;4974570;28;20046;-90
2023/12/02 02:44:21;;;;;;;30.58;12.35;;;;;;;-2.19;100.00;100325.50;4973445;28;20031;-89
2023/12/02 02:46:46;;;;;;;20.15;12.73;;;;;;;-2.10;100.00;100329.63;4973001;28;20065;-90
2023/12/02 02:49:12;;;;;;;33.58;12.93;;;;;;;-2.11;100.00;100330.50;4973947;28;20073;-89
2023/12/02 02:51:37;;;;;;;30.98;13.57;;;;;;;-2.08;100.00;100334.69;4974372;28;20433;-89
2023/12/02 02:54:03;;;;;;;22.38;12.85;;;;;;;-1.99;100.00;100334.63;4973685;28;20050;-89
2023/12/02 02:56:28;;;;;;;19.13;12.23;;;;;;;-1.95;100.00;100339.66;4974506;28;20031;-89
2023/12/02 02:58:53;;;;;;;18.48;11.90;;;;;;;-1.92;100.00;100338.78;4974127;28;20076;-90
2023/12/02 03:01:19;;;;;;;21.27;11.73;;;;;;;-1.92;100.00;100331.19;4974269;28;20553;-89
2023/12/02 03:03:44;;;;;;;22.10;11.70;;;;;;;-1.89;100.00;100348.88;4973223;28;20041;-89
2023/12/02 03:06:09;;;;;;;19.88;11.75;;;;;;;-1.83;100.00;100335.31;4974152;28;20077;-89
2023/12/02 03:08:35;;;;;;;21.20;11.45;;;;;;;-1.79;100.00;100337.81;4973803;28;20026;-90
2023/12/02 03:11:00;;;;;;;27.73;11.93;;;;;;;-1.87;100.00;100331.16;4972779;28;20069;-89
2023/12/02 03:13:26;;;;;;;21.25;13.18;;;;;;;-1.94;100.00;100328.66;4972746;28;20027;-89
2023/12/02 03:15:52;;;;;;;30.42;10.82;;;;;;;-1.83;100.00;100331.13;4973887;28;20497;-89
2023/12/02 03:18:17;;;;;;;26.88;13.10;;;;;;;-1.88;100.00;100332.00;4973746;28;20118;-89
2023/12/02 03:20:42;;;;;;;35.88;12.70;;;;;;;-1.91;100.00;100332.88;4973723;28;20061;-89
2023/12/02 03:23:08;;;;;;;25.02;12.65;;;;;;;-1.82;100.00;100322.69;4972626;28;20027;-89
2023/12/02 03:25:33;;;;;;;22.77;12.25;;;;;;;-1.88;100.00;100320.19;4973757;28;20481;-88
2023/12/02 03:27:58;;;;;;;24.65;12.70;;;;;;;-1.84;100.00;100323.53;4973564;28;20038;-90
2023/12/02 03:30:24;;;;;;;27.35;12.27;;;;;;;-1.82;100.00;100326.91;4973737;28;20030;-89
2023/12/02 03:32:49;;;;;;;20.38;11.88;;;;;;;-1.82;100.00;100321.84;4971916;28;20030;-89
2023/12/02 03:35:15;;;;;;;20.88;12.07;;;;;;;-1.80;100.00;100331.09;4973547;28;20066;-88
2023/12/02 03:37:40;;;;;;;24.77;12.05;;;;;;;-1.84;100.00;100331.97;4973598;28;20037;-89
2023/12/02 03:40:07;;;;;;;20.00;12.35;;;;;;;-1.90;100.00;100334.56;4973613;28;20031;-89
2023/12/02 03:42:32;;;;;;;18.55;11.68;;;;;;;-1.86;100.00;100331.13;4970769;28;20038;-89
2023/12/02 03:44:58;;;;;;;22.20;13.20;;;;;;;-1.88;100.00;100332.00;4972481;28;20058;-89
2023/12/02 03:47:23;;;;;;;23.38;13.00;;;;;;;-1.91;100.00;100330.34;4973366;28;20026;-89
2023/12/02 03:49:48;;;;;;;30.73;13.23;;;;;;;-1.91;100.00;100339.63;4971258;28;20033;-90
2023/12/02 03:52:14;;;;;;;22.67;12.63;;;;;;;-1.90;100.00;100342.16;4973374;28;20069;-89
2023/12/02 03:54:39;;;;;;;28.30;12.85;;;;;;;-1.67;100.00;100344.47;4973433;28;20033;-89
2023/12/02 03:57:05;;;;;;;32.45;14.82;;;;;;;-1.69;100.00;100332.69;4973273;28;20772;-89
2023/12/02 03:59:31;;;;;;;68.07;15.50;;;;;;;-1.91;100.00;100337.91;4972284;28;20050;-89
2023/12/02 04:01:57;;;;;;;30.52;14.02;;;;;;;-1.99;100.00;100332.09;4973440;28;20489;-89
2023/12/02 04:04:22;;;;;;;28.73;14.45;;;;;;;-1.89;100.00;100335.38;4973086;28;20023;-89
2023/12/02 04:06:48;;;;;;;30.05;14.70;;;;;;;-1.82;100.00;100342.09;4973273;28;20602;-89
2023/12/02 04:09:13;;;;;;;41.47;15.85;;;;;;;-1.84;100.00;100342.09;4972452;28;20027;-89
2023/12/02 04:11:38;;;;;;;27.58;13.30;;;;;;;-1.84;100.00;100343.78;4973004;28;20026;-89
2023/12/02 04:14:04;;;;;;;27.25;13.57;;;;;;;-1.85;100.00;100332.81;4973054;28;20030;-89
2023/12/02 04:16:30;;;;;;;22.92;13.68;;;;;;;-1.70;100.00;100349.56;4973055;28;20500;-90
2023/12/02 04:18:55;;;;;;;49.53;15.10;;;;;;;-1.82;100.00;100353.03;4972252;28;20023;-88
2023/12/02 04:21:21;;;;;;;38.53;15.27;;;;;;;-1.88;100.00;100355.59;4972885;28;20031;-88
2023/12/02 04:23:47;;;;;;;29.88;15.52;;;;;;;-1.78;100.00;100352.16;4972825;28;20031;-88
2023/12/02 04:26:12;;;;;;;127.32;18.58;;;;;;;-2.01;100.00;100356.56;4972928;28;20515;-89
2023/12/02 04:28:37;;;;;;;263.30;21.88;;;;;;;-2.07;100.00;100356.59;4972005;28;20682;-89
2023/12/02 04:31:03;;;;;;;114.22;17.98;;;;;;;-1.98;100.00;100351.47;4974965;28;20030;-90
2023/12/02 04:33:28;;;;;;;24.77;14.52;;;;;;;-2.02;100.00;100349.84;4976832;28;20417;-89
2023/12/02 04:35:54;;;;;;;25.70;15.13;;;;;;;-1.91;100.00;100352.28;4976870;28;20027;-89
2023/12/02 04:38:19;;;;;;;26.85;14.60;;;;;;;-1.88;100.00;100352.22;4974374;28;20438;-89
2023/12/02 04:40:45;;;;;;;24.65;14.73;;;;;;;-1.84;100.00;100357.25;4976783;28;20030;-89
2023/12/02 04:43:10;;;;;;;25.67;14.68;;;;;;;-1.70;100.00;100351.25;4976571;28;20154;-89
2023/12/02 04:45:35;;;;;;;32.35;16.33;;;;;;;-1.69;100.00;100352.94;4976901;28;20365;-89
2023/12/02 04:48:01;;;;;;;24.88;13.88;;;;;;;-1.70;100.00;100354.63;4974815;28;20507;-89
2023/12/02 04:50:27;;;;;;;55.92;15.25;;;;;;;-1.72;100.00;100357.16;4976428;28;20026;-89
2023/12/02 04:52:52;;;;;;;23.00;14.27;;;;;;;-1.63;100.00;100363.00;4976438;28;20482;-90
2023/12/02 04:55:17;;;;;;;23.45;13.48;;;;;;;-1.63;100.00;100363.84;4976613;28;20041;-89
2023/12/02 04:57:44;;;;;;;69.15;15.27;;;;;;;-1.68;100.00;100374.84;4974237;28;20481;-90
2023/12/02 05:00:13;;;;;;;26.50;15.38;;;;;;;-1.60;100.00;100383.22;4975161;28;20019;-89
2023/12/02 05:02:40;;;;;;;24.67;14.38;;;;;;;-1.66;100.00;100379.03;4975598;28;20129;-89
2023/12/02 05:05:07;;;;;;;26.02;15.82;;;;;;;-1.60;100.00;100380.69;4976414;28;20497;-89
2023/12/02 05:07:32;;;;;;;34.75;13.77;;;;;;;-1.61;100.00;100389.13;4975206;28;20489;-89
2023/12/02 05:09:57;;;;;;;38.33;17.30;;;;;;;-1.45;100.00;100397.44;4976032;28;20034;-89
2023/12/02 05:12:23;;;;;;;23.10;13.50;;;;;;;-1.59;100.00;100388.25;4976128;28;20077;-89
2023/12/02 05:14:48;;;;;;;36.38;13.90;;;;;;;-1.64;100.00;100379.03;4976057;28;20031;-89
2023/12/02 05:17:13;;;;;;;30.67;15.20;;;;;;;-1.67;100.00;100387.50;4975095;28;20039;-89
2023/12/02 05:19:39;;;;;;;70.47;15.57;;;;;;;-1.68;100.00;100392.56;4976233;28;20030;-88
2023/12/02 05:22:04;;;;;;;25.23;14.23;;;;;;;-1.73;100.00;100397.69;4976099;28;20023;-89
2023/12/02 05:24:30;;;;;;;55.08;15.80;;;;;;;-1.85;100.00;100400.25;4975909;28;20027;-89
2023/12/02 05:26:57;;;;;;;45.65;15.05;;;;;;;-1.88;100.00;100398.59;4975293;28;20488;-88
2023/12/02 05:29:23;;;;;;;24.45;13.77;;;;;;;-1.78;100.00;100399.38;4975633;28;20026;-89
2023/12/02 05:31:48;;;;;;;31.77;15.52;;;;;;;-1.78;100.00;100392.66;4975975;28;20023;-90
2023/12/02 05:34:14;;;;;;;47.08;16.13;;;;;;;-1.75;100.00;100385.03;4975830;28;20477;-90
2023/12/02 05:36:39;;;;;;;26.45;14.63;;;;;;;-1.69;100.00;100393.41;4976144;28;20035;-89
2023/12/02 05:39:05;;;;;;;24.70;14.30;;;;;;;-1.77;100.00;100386.72;4974993;28;20034;-90
2023/12/02 05:41:30;;;;;;;29.33;14.70;;;;;;;-1.70;100.00;100395.09;4974390;28;20048;-89
2023/12/02 05:43:56;;;;;;;41.60;14.43;;;;;;;-1.79;100.00;100398.53;4975936;28;20354;-89
2023/12/02 05:46:21;;;;;;;91.28;16.90;;;;;;;-1.80;100.00;100404.47;4974280;28;20129;-88
2023/12/02 05:48:47;;;;;;;44.83;15.77;;;;;;;-1.79;100.00;100388.41;4974559;28;20035;-90
2023/12/02 05:51:13;;;;;;;24.20;13.88;;;;;;;-1.71;100.00;100403.53;4975839;28;20548;-91
2023/12/02 05:53:41;;;;;;;34.88;15.65;;;;;;;-1.80;100.00;100401.94;4974119;28;20057;-91
2023/12/02 05:56:08;;;;;;;25.92;14.13;;;;;;;-1.85;100.00;100402.78;4975628;28;20061;-90
2023/12/02 05:58:33;;;;;;;31.90;14.63;;;;;;;-1.73;100.00;100405.25;4974189;28;20481;-90
2023/12/02 06:00:59;;;;;;;56.45;14.85;;;;;;;-1.75;100.00;100415.38;4975256;28;20023;-91
2023/12/02 06:03:24;;;;;;;34.03;14.02;;;;;;;-1.78;100.00;100414.56;4975171;28;20082;-90
2023/12/02 06:05:49;;;;;;;22.63;13.02;;;;;;;-1.66;100.00;100418.69;4975394;28;20496;-89
2023/12/02 06:08:15;;;;;;;28.13;12.85;;;;;;;-1.66;100.00;100417.00;4972804;28;20069;-88
2023/12/02 06:10:40;;;;;;;57.63;12.63;;;;;;;-1.75;100.00;100414.56;4975303;28;20492;-88
2023/12/02 06:13:06;;;;;;;31.20;11.48;;;;;;;-1.75;100.00;100422.97;4975349;28;20043;-87
2023/12/02 06:15:31;;;;;;;18.73;11.07;;;;;;;-1.72;100.00;100420.41;4973981;28;20397;-87
2023/12/02 06:17:57;;;;;;;51.47;12.07;;;;;;;-1.79;100.00;100425.53;4972398;28;20069;-86
2023/12/02 06:20:25;;;;;;;45.78;13.75;;;;;;;-1.86;100.00;100427.25;4973252;28;20058;-87
2023/12/02 06:22:51;;;;;;;25.67;13.23;;;;;;;-1.81;100.00;100430.59;4972648;28;20030;-87
2023/12/02 06:25:16;;;;;;;23.08;13.00;;;;;;;-1.83;100.00;100429.78;4973424;28;20512;-88
2023/12/02 06:27:42;;;;;;;82.22;14.18;;;;;;;-1.87;100.00;100430.66;4974522;28;20058;-88
2023/12/02 06:30:08;;;;;;;19.15;12.05;;;;;;;-1.81;100.00;100433.13;4974391;28;20470;-86
2023/12/02 06:32:33;;;;;;;47.20;13.40;;;;;;;-1.72;100.00;100435.59;4974840;28;20034;-87
2023/12/02 06:34:58;;;;;;;25.42;12.43;;;;;;;-1.66;100.00;100438.94;4974781;28;20026;-87
2023/12/02 06:37:24;;;;;;;20.35;12.40;;;;;;;-1.76;100.00;100433.09;4974023;28;20035;-87
2023/12/02 06:39:49;;;;;;;38.40;13.55;;;;;;;-1.92;100.00;100445.03;4969864;28;20042;-86
2023/12/02 06:42:15;;;;;;;20.88;12.32;;;;;;;-1.99;100.00;100440.84;4974329;28;20027;-88
2023/12/02 06:44:43;;;;;;;84.63;13.07;;;;;;;-2.00;100.00;100445.06;4974345;28;20069;-88
2023/12/02 06:47:09;;;;;;;71.20;13.07;;;;;;;-1.94;100.00;100451.78;4974525;28;20031;-87
2023/12/02 06:49:34;;;;;;;104.45;14.18;;;;;;;-2.14;100.00;100456.13;4972080;28;20481;-88
2023/12/02 06:51:59;;;;;;;118.95;13.35;;;;;;;-2.05;100.00;100467.03;4974002;28;20465;-89
2023/12/02 06:54:25;;;;;;;19.38;11.70;;;;;;;-2.21;100.00;100471.31;4974014;28;20022;-89
2023/12/02 06:56:50;;;;;;;20.60;12.55;;;;;;;-2.08;100.00;100461.13;4973596;28;20166;-88
2023/12/02 06:59:16;;;;;;;38.28;13.38;;;;;;;-2.01;100.00;100460.25;4971126;28;20114;-87
2023/12/02 07:01:41;;;;;;;16.10;10.77;;;;;;;-2.01;100.00;100463.59;4973448;28;20026;-88
2023/12/02 07:04:07;;;;;;;19.17;12.20;;;;;;;-2.03;100.00;100450.13;4971623;28;20053;-88
2023/12/02 07:06:32;;;;;;;16.15;10.60;;;;;;;-2.03;100.00;100451.81;4974018;28;20077;-88
2023/12/02 07:08:58;;;;;;;18.23;10.90;;;;;;;-1.97;100.00;100451.81;4971457;28;20035;-89
2023/12/02 07:11:23;;;;;;;17.83;10.73;;;;;;;-2.02;100.00;100453.53;4971804;28;20067;-88
2023/12/02 07:13:49;;;;;;;19.50;11.23;;;;;;;-2.00;100.00;100464.44;4972914;28;20015;-89
2023/12/02 07:16:14;;;;;;;24.02;11.63;;;;;;;-1.97;100.00;100456.84;4973949;28;20027;-88
2023/12/02 07:18:40;;;;;;;31.90;11.85;;;;;;;-2.03;100.00;100457.72;4971449;28;20022;-88
2023/12/02 07:21:10;;;;;;;18.33;11.65;;;;;;;-1.99;100.00;100456.03;4973756;28;20082;-88
2023/12/02 07:23:36;;;;;;;19.60;12.40;;;;;;;-1.95;100.00;100462.75;4971226;28;20041;-88
2023/12/02 07:26:01;;;;;;;22.63;12.35;;;;;;;-1.92;100.00;100459.38;4971138;28;20027;-88
2023/12/02 07:28:27;;;;;;;55.50;13.18;;;;;;;-1.97;100.00;100469.50;4971172;28;20433;-87
2023/12/02 07:30:52;;;;;;;52.88;14.50;;;;;;;-2.12;100.00;100469.56;4973646;28;20154;-88
2023/12/02 07:33:21;;;;;;;22.40;12.05;;;;;;;-2.25;100.00;100483.97;4969835;28;20033;-89
2023/12/02 07:35:47;;;;;;;161.18;15.13;;;;;;;-2.50;100.00;100473.09;4973115;28;20062;-89
2023/12/02 07:38:12;;;;;;;24.17;12.35;;;;;;;-2.30;100.00;100475.56;4973406;28;20047;-89
2023/12/02 07:40:38;;;;;;;24.88;12.98;;;;;;;-2.37;100.00;100474.72;4973727;28;20477;-88
2023/12/02 07:43:03;;;;;;;24.83;12.55;;;;;;;-2.31;100.00;100482.31;4970473;28;20047;-90
2023/12/02 07:45:29;;;;;;;20.02;11.98;;;;;;;-1.97;100.00;100479.63;4970770;28;20031;-88
2023/12/02 07:47:55;;;;;;;20.50;10.20;;;;;;;-2.22;100.00;100491.53;4971156;28;20026;-88
2023/12/02 07:50:20;;;;;;;21.50;11.32;;;;;;;-2.70;100.00;100494.22;4973414;28;20023;-88
2023/12/02 07:52:46;;;;;;;21.80;13.52;;;;;;;-2.51;100.00;100487.44;4972400;28;20382;-88
2023/12/02 07:55:12;;;;;;;20.95;11.85;;;;;;;-2.31;100.00;100492.41;4971517;28;20022;-89
2023/12/02 07:57:37;;;;;;;29.85;11.93;;;;;;;-2.51;100.00;100491.63;4972379;28;20393;-88
2023/12/02 08:00:03;;;;;;;31.02;11.82;;;;;;;-2.44;100.00;100489.09;4972805;28;20022;-87
2023/12/02 08:02:29;;;;;;;38.72;13.32;;;;;;;-2.63;100.00;100493.38;4970540;28;20151;-87
2023/12/02 08:04:54;;;;;;;36.65;12.23;;;;;;;-2.67;100.00;100496.72;4969939;28;20030;-87
2023/12/02 08:07:19;;;;;;;35.10;13.57;;;;;;;-2.53;100.00;100501.75;4971654;28;20488;-87
2023/12/02 08:09:45;;;;;;;23.00;11.95;;;;;;;-2.43;100.00;100502.56;4973144;28;20039;-88
2023/12/02 08:12:10;;;;;;;33.35;13.65;;;;;;;-2.49;100.00;100507.63;4971198;28;20539;-87
2023/12/02 08:14:36;;;;;;;21.35;12.38;;;;;;;-2.35;100.00;100503.38;4973084;28;20465;-87
2023/12/02 08:17:02;;;;;;;20.58;11.55;;;;;;;-2.26;100.00;100505.88;4968387;28;20038;-88
2023/12/02 08:19:28;;;;;;;89.93;14.15;;;;;;;-2.51;100.00;100506.78;4970907;28;20072;-88
2023/12/02 08:21:53;;;;;;;100.70;14.30;;;;;;;-2.65;100.00;100507.69;4971536;28;20027;-89
2023/12/02 08:24:20;;;;;;;32.38;12.05;;;;;;;-2.41;100.00;100513.53;4969258;28;20027;-88
2023/12/02 08:26:47;;;;;;;47.65;11.40;;;;;;;-2.31;100.00;100510.09;4968381;28;20051;-87
2023/12/02 08:29:13;;;;;;;27.05;12.65;;;;;;;-2.20;100.00;100515.94;4972743;28;20110;-87
2023/12/02 08:31:38;;;;;;;22.13;12.32;;;;;;;-2.13;100.00;100508.34;4970117;28;20125;-89
2023/12/02 08:34:04;;;;;;;36.30;11.38;;;;;;;-2.12;100.00;100512.56;4972728;28;20034;-89
2023/12/02 08:36:29;;;;;;;70.13;12.18;;;;;;;-2.27;100.00;100514.28;4972205;28;20034;-89
2023/12/02 08:38:55;;;;;;;20.05;12.70;;;;;;;-2.25;100.00;100510.06;4972673;28;20094;-89
2023/12/02 08:41:20;;;;;;;33.92;11.63;;;;;;;-2.29;100.00;100500.84;4971777;28;20126;-88
2023/12/02 08:43:45;;;;;;;22.23;11.27;;;;;;;-2.32;100.00;100507.56;4972429;28;20386;-89
2023/12/02 08:46:16;;;;;;;22.67;11.63;;;;;;;-2.19;100.00;100517.66;4971977;28;20097;-86
2023/12/02 08:48:41;;;;;;;58.42;12.40;;;;;;;-2.23;100.00;100521.03;4953255;28;20402;-88
2023/12/02 08:51:07;;;;;;;137.48;13.43;;;;;;;-2.24;100.00;100514.31;4971181;28;20031;-88
2023/12/02 08:53:33;;;;;;;60.05;12.52;;;;;;;-2.36;100.00;100511.81;4972674;28;20038;-88
2023/12/02 08:55:59;;;;;;;48.92;13.02;;;;;;;-2.33;100.00;100516.03;4972495;28;20023;-88
2023/12/02 08:58:24;;;;;;;103.40;13.18;;;;;;;-2.25;100.00;100515.13;4971146;28;20113;-88
2023/12/02 09:00:49;;;;;;;73.05;12.02;;;;;;;-2.29;100.00;100510.94;4972263;28;20556;-87
2023/12/02 09:03:16;;;;;;;88.53;13.10;;;;;;;-2.66;100.00;100506.00;4969613;28;20498;-86
2023/12/02 09:05:41;;;;;;;39.60;11.85;;;;;;;-2.48;100.00;100512.69;4972142;28;20026;-88
2023/12/02 09:08:07;;;;;;;54.60;12.02;;;;;;;-2.32;100.00;100515.16;4972610;28;20042;-88
2023/12/02 09:10:32;;;;;;;47.42;12.85;;;;;;;-2.10;100.00;100518.44;4972164;28;20381;-88
2023/12/02 09:12:57;;;;;;;34.58;11.82;;;;;;;-2.16;100.00;100516.78;4970798;28;20089;-88
2023/12/02 09:15:23;;;;;;;36.88;12.85;;;;;;;-1.97;100.00;100525.16;4972639;28;20027;-88
2023/12/02 09:18:09;;;;;;;24.20;12.80;;;;;;;-1.91;100.00;100522.56;4975761;28;20466;-88
2023/12/02 09:20:53;;;;;;;21.80;12.57;;;;;;;-1.85;100.00;100516.63;4975539;28;20438;-87
2023/12/02 09:23:20;;;;;;;84.10;11.98;;;;;;;-2.04;100.00;100515.91;4974133;28;20054;-88
2023/12/02 09:25:47;;;;;;;27.30;12.05;;;;;;;-1.94;100.00;100525.13;4975320;28;20473;-88
2023/12/02 09:28:18;;;;;;;67.63;14.32;;;;;;;-1.84;100.00;100515.81;4974406;28;20030;-89
2023/12/02 09:30:54;;;;;;;75.40;14.98;;;;;;;-1.74;100.00;100525.84;4974190;28;20035;-88
2023/12/02 09:33:20;;;;;;;22.65;12.82;;;;;;;-1.69;100.00;100525.00;4975066;28;20059;-89
2023/12/02 09:35:50;;;;;;;22.75;12.65;;;;;;;-1.58;100.00;100529.16;4974669;28;20030;-87
2023/12/02 09:38:16;;;;;;;20.15;11.38;;;;;;;-1.52;100.00;100533.31;4975345;28;20045;-87
2023/12/02 09:41:00;;;;;;;26.88;12.77;;;;;;;-1.36;100.00;100544.19;4970108;28;20035;-87
2023/12/02 09:43:37;;;;;;;65.60;12.77;;;;;;;-1.54;100.00;100545.13;4975376;28;20037;-88
2023/12/02 09:46:11;;;;;;;20.48;12.38;;;;;;;-1.62;100.00;100541.81;4975424;28;20378;-87
2023/12/02 09:48:49;;;;;;;21.23;12.27;;;;;;;-1.59;100.00;100540.09;4974673;28;20073;-87
2023/12/02 09:51:42;;;;;;;46.58;13.65;;;;;;;-1.35;100.00;100546.69;4970841;28;20027;-88
2023/12/02 09:54:34;;;;;;;36.55;12.00;;;;;;;-1.38;100.00;100540.84;4974550;28;20050;-88
2023/12/02 09:57:32;;;;;;;19.92;11.93;;;;;;;-1.35;100.00;100541.63;4974712;28;20030;-87
2023/12/02 10:00:12;;;;;;;211.65;15.80;;;;;;;-1.55;100.00;100543.47;4973978;28;20058;-89
2023/12/02 10:02:43;;;;;;;22.52;13.70;;;;;;;-1.37;100.00;100548.41;4974487;28;20034;-88
2023/12/02 10:05:10;;;;;;;89.10;14.55;;;;;;;-1.30;100.00;100544.97;4974706;28;20038;-88
2023/12/02 10:08:05;;;;;;;23.20;13.38;;;;;;;-1.23;100.00;100547.47;4975179;28;20034;-88
2023/12/02 10:11:14;;;;;;;116.68;15.48;;;;;;;-1.33;100.00;100555.13;4973211;28;20031;-87
2023/12/02 10:13:49;;;;;;;81.55;14.85;;;;;;;-1.36;100.00;100554.31;4962677;28;20038;-88
2023/12/02 10:16:16;;;;;;;22.63;11.85;;;;;;;-1.26;100.00;100561.00;4958947;28;20030;-87
2023/12/02 10:18:52;;;;;;;31.77;14.82;;;;;;;-1.22;100.00;100552.53;4974939;28;20026;-87
2023/12/02 10:21:20;;;;;;;28.95;14.70;;;;;;;-1.11;100.00;100554.97;4974013;28;20027;-87
2023/12/02 10:23:55;;;;;;;31.92;13.98;;;;;;;-1.15;100.00;100559.22;4974065;28;20065;-88
2023/12/02 10:26:27;;;;;;;49.75;13.65;;;;;;;-1.12;100.00;100563.44;4973234;28;20027;-88
2023/12/02 10:28:59;;;;;;;26.60;12.77;;;;;;;-1.02;100.00;100562.50;4973388;28;20031;-88
2023/12/02 10:31:29;;;;;;;34.17;13.85;;;;;;;-0.92;100.00;100560.75;4966648;28;20038;-88
2023/12/02 10:34:20;;;;;;;32.58;14.55;;;;;;;-0.82;100.00;100561.50;4972588;28;20029;-88
2023/12/02 10:36:48;;;;;;;38.10;11.95;;;;;;;-0.93;100.00;100564.94;4971356;28;20037;-89
2023/12/02 10:39:28;;;;;;;22.50;12.50;;;;;;;-0.68;100.00;100560.53;4973361;28;20082;-88
2023/12/02 10:42:04;;;;;;;27.70;13.45;;;;;;;-0.67;100.00;100558.81;4968668;28;20497;-88
2023/12/02 10:44:33;;;;;;;76.93;13.95;;;;;;;-0.60;100.00;100547.78;4966332;28;20037;-88
2023/12/02 10:47:00;;;;;;;25.63;13.45;;;;;;;-0.78;100.00;100545.41;4972002;28;20026;-87
2023/12/02 10:49:29;;;;;;;25.33;12.77;;;;;;;-0.59;100.00;100549.44;4968711;28;20035;-88
2023/12/02 10:51:55;;;;;;;61.22;14.75;;;;;;;-0.54;100.00;100546.88;4973116;28;20463;-88
2023/12/02 10:54:24;;;;;;;20.52;12.02;;;;;;;-0.70;100.00;100541.13;4971587;28;20023;-88
2023/12/02 10:56:52;;;;;;;25.65;12.52;;;;;;;-0.86;100.00;100543.78;4965254;28;20039;-88
2023/12/02 10:59:21;;;;;;;22.20;11.70;;;;;;;-0.60;100.00;100546.94;4969038;28;20034;-88
2023/12/02 11:01:53;;;;;;;31.35;12.80;;;;;;;-0.73;100.00;100546.19;4973666;28;20027;-88